RYR8EC EGPK-GCRR
Flight info
| Callsign | RYR8EC |
|---|---|
| Flight time | 7h 59m |
| Altitude | 34000 |
| Route | AKODA1L AKODA Z247 HERON N562 MAC DCT DEGOS DCT SUROX DCT TORLU DCT MAPAG/M077F340 DCT LASNO T9 BEGAS/N0445F340 DCT PINEK/N0442F350 DCT NAKOS DCT TAKAV DCT VEDOD UN857 TERTO TERTO1P |
| Aircraft | B738/M-SDE2E3FGHIRWXY/LB1 |
Departure
| Time | 2026-04-22 09:28 |
|---|---|
| Airport | Glasgow Prestwick Airport (EGPK) |
Arrival
| Time | 2026-04-22 17:27 |
|---|---|
| Airport | César Manrique-Lanzarote Airport (GCRR) |
| Time | Latitude | Longitude | Altitude | Speed | Heading |
|---|---|---|---|---|---|
| 2026-04-22 08:58 | 55.51015 | -4.61107 | 72 ft | 0 kts | 120° |
| 2026-04-22 09:19 | 55.51018 | -4.61118 | 72 ft | 2 kts | 120° |
| 2026-04-22 09:19 | 55.51026 | -4.61141 | 72 ft | 2 kts | 120° |
| 2026-04-22 09:20 | 55.51033 | -4.61163 | 71 ft | 0 kts | 120° |
| 2026-04-22 09:20 | 55.51038 | -4.61179 | 71 ft | 2 kts | 103° |
| 2026-04-22 09:20 | 55.51038 | -4.61205 | 71 ft | 2 kts | 72° |
| 2026-04-22 09:20 | 55.51030 | -4.61228 | 72 ft | 2 kts | 43° |
| 2026-04-22 09:21 | 55.51024 | -4.61236 | 72 ft | 1 kts | 26° |
| 2026-04-22 09:21 | 55.51020 | -4.61240 | 72 ft | 0 kts | 30° |
| 2026-04-22 09:22 | 55.51027 | -4.61233 | 72 ft | 3 kts | 30° |
| 2026-04-22 09:23 | 55.51059 | -4.61199 | 72 ft | 6 kts | 33° |
| 2026-04-22 09:23 | 55.51095 | -4.61150 | 72 ft | 5 kts | 39° |
| 2026-04-22 09:23 | 55.51120 | -4.61105 | 72 ft | 5 kts | 50° |
| 2026-04-22 09:23 | 55.51143 | -4.61052 | 72 ft | 5 kts | 54° |
| 2026-04-22 09:24 | 55.51173 | -4.60979 | 72 ft | 8 kts | 53° |
| 2026-04-22 09:24 | 55.51200 | -4.60919 | 72 ft | 4 kts | 37° |
| 2026-04-22 09:24 | 55.51242 | -4.60924 | 72 ft | 8 kts | 315° |
| 2026-04-22 09:24 | 55.51277 | -4.61021 | 72 ft | 9 kts | 301° |
| 2026-04-22 09:25 | 55.51319 | -4.61139 | 72 ft | 12 kts | 301° |
| 2026-04-22 09:25 | 55.51369 | -4.61287 | 72 ft | 15 kts | 301° |
| 2026-04-22 09:25 | 55.51425 | -4.61423 | 72 ft | 12 kts | 315° |
| 2026-04-22 09:25 | 55.51488 | -4.61504 | 72 ft | 10 kts | 340° |
| 2026-04-22 09:26 | 55.51551 | -4.61528 | 72 ft | 8 kts | 355° |
| 2026-04-22 09:26 | 55.51597 | -4.61503 | 72 ft | 6 kts | 39° |
| 2026-04-22 09:26 | 55.51617 | -4.61445 | 72 ft | 4 kts | 81° |
| 2026-04-22 09:26 | 55.51608 | -4.61397 | 72 ft | 3 kts | 120° |
| 2026-04-22 09:27 | 55.51580 | -4.61313 | 72 ft | 28 kts | 121° |
| 2026-04-22 09:27 | 55.51354 | -4.60658 | 72 ft | 95 kts | 120° |
| 2026-04-22 09:27 | 55.50900 | -4.59346 | 72 ft | 152 kts | 119° |
| 2026-04-22 09:27 | 55.50310 | -4.57655 | 517 ft | 165 kts | 117° |
| 2026-04-22 09:28 | 55.49737 | -4.55977 | 1186 ft | 169 kts | 116° |
| 2026-04-22 09:28 | 55.49124 | -4.54181 | 1776 ft | 175 kts | 116° |
| 2026-04-22 09:28 | 55.48470 | -4.52316 | 2165 ft | 185 kts | 117° |
| 2026-04-22 09:28 | 55.47717 | -4.50344 | 2462 ft | 204 kts | 126° |
| 2026-04-22 09:29 | 55.46547 | -4.48795 | 3017 ft | 217 kts | 152° |
| 2026-04-22 09:29 | 55.45064 | -4.48299 | 3643 ft | 227 kts | 176° |
| 2026-04-22 09:29 | 55.43513 | -4.49241 | 3982 ft | 256 kts | 213° |
| 2026-04-22 09:29 | 55.42433 | -4.51884 | 4355 ft | 278 kts | 248° |
| 2026-04-22 09:30 | 55.41975 | -4.55172 | 4932 ft | 284 kts | 256° |
| 2026-04-22 09:30 | 55.41587 | -4.58550 | 5619 ft | 284 kts | 255° |
| 2026-04-22 09:30 | 55.41177 | -4.61970 | 6303 ft | 284 kts | 255° |
| 2026-04-22 09:30 | 55.40752 | -4.65319 | 6952 ft | 284 kts | 252° |
| 2026-04-22 09:31 | 55.39908 | -4.68410 | 7498 ft | 281 kts | 227° |
| 2026-04-22 09:31 | 55.38570 | -4.70841 | 8118 ft | 280 kts | 218° |
| 2026-04-22 09:31 | 55.37116 | -4.73156 | 8737 ft | 281 kts | 219° |
| 2026-04-22 09:31 | 55.35715 | -4.75548 | 9323 ft | 284 kts | 221° |
| 2026-04-22 09:32 | 55.34357 | -4.78057 | 9885 ft | 287 kts | 223° |
| 2026-04-22 09:32 | 55.33009 | -4.80643 | 10482 ft | 289 kts | 223° |
| 2026-04-22 09:32 | 55.31656 | -4.83259 | 10841 ft | 299 kts | 223° |
| 2026-04-22 09:32 | 55.30225 | -4.86012 | 11147 ft | 311 kts | 223° |
| 2026-04-22 09:33 | 55.28757 | -4.88836 | 11728 ft | 314 kts | 223° |
| 2026-04-22 09:33 | 55.27280 | -4.91671 | 12316 ft | 316 kts | 224° |
| 2026-04-22 09:33 | 55.25932 | -4.94252 | 12853 ft | 319 kts | 224° |
| 2026-04-22 09:33 | 55.24430 | -4.97119 | 13463 ft | 321 kts | 224° |
| 2026-04-22 09:34 | 55.22923 | -4.99990 | 14049 ft | 324 kts | 224° |
| 2026-04-22 09:34 | 55.21405 | -5.02878 | 14639 ft | 326 kts | 224° |
| 2026-04-22 09:34 | 55.19865 | -5.05808 | 15237 ft | 328 kts | 224° |
| 2026-04-22 09:35 | 55.16779 | -5.11676 | 16402 ft | 333 kts | 225° |
| 2026-04-22 09:35 | 55.15199 | -5.14676 | 16969 ft | 336 kts | 225° |
| 2026-04-22 09:35 | 55.13096 | -5.18661 | 17701 ft | 339 kts | 225° |
| 2026-04-22 09:35 | 55.12026 | -5.20686 | 18074 ft | 340 kts | 225° |
| 2026-04-22 09:36 | 55.10422 | -5.23718 | 18581 ft | 343 kts | 226° |
| 2026-04-22 09:36 | 55.08811 | -5.26759 | 19096 ft | 346 kts | 226° |
| 2026-04-22 09:36 | 55.07164 | -5.29864 | 19614 ft | 348 kts | 227° |
| 2026-04-22 09:36 | 55.05526 | -5.32950 | 20151 ft | 348 kts | 227° |
| 2026-04-22 09:37 | 55.03890 | -5.36028 | 20640 ft | 351 kts | 227° |
| 2026-04-22 09:37 | 55.02231 | -5.39144 | 21108 ft | 353 kts | 228° |
| 2026-04-22 09:37 | 55.00566 | -5.42267 | 21574 ft | 354 kts | 229° |
| 2026-04-22 09:37 | 54.98888 | -5.45411 | 22010 ft | 356 kts | 229° |
| 2026-04-22 09:38 | 54.97203 | -5.48565 | 22435 ft | 358 kts | 229° |
| 2026-04-22 09:38 | 54.95506 | -5.51739 | 22869 ft | 360 kts | 230° |
| 2026-04-22 09:38 | 54.93809 | -5.54905 | 23280 ft | 362 kts | 230° |
| 2026-04-22 09:38 | 54.92081 | -5.58129 | 23679 ft | 364 kts | 230° |
| 2026-04-22 09:39 | 54.90368 | -5.61317 | 24117 ft | 364 kts | 231° |
| 2026-04-22 09:39 | 54.88631 | -5.64547 | 24514 ft | 366 kts | 231° |
| 2026-04-22 09:39 | 54.86901 | -5.67757 | 24921 ft | 368 kts | 230° |
| 2026-04-22 09:39 | 54.85161 | -5.70982 | 25272 ft | 371 kts | 230° |
| 2026-04-22 09:40 | 54.83405 | -5.74233 | 25711 ft | 371 kts | 230° |
| 2026-04-22 09:40 | 54.81632 | -5.77508 | 26043 ft | 374 kts | 230° |
| 2026-04-22 09:40 | 54.79851 | -5.80796 | 26427 ft | 376 kts | 230° |
| 2026-04-22 09:40 | 54.78052 | -5.84110 | 26805 ft | 377 kts | 230° |
| 2026-04-22 09:41 | 54.76246 | -5.87434 | 27151 ft | 379 kts | 230° |
| 2026-04-22 09:41 | 54.74427 | -5.90778 | 27513 ft | 380 kts | 230° |
| 2026-04-22 09:41 | 54.72602 | -5.94127 | 27869 ft | 382 kts | 230° |
| 2026-04-22 09:41 | 54.70790 | -5.97448 | 28179 ft | 384 kts | 230° |
| 2026-04-22 09:42 | 54.68979 | -6.00766 | 28566 ft | 383 kts | 230° |
| 2026-04-22 09:42 | 54.67144 | -6.04121 | 28877 ft | 385 kts | 230° |
| 2026-04-22 09:42 | 54.65308 | -6.07473 | 29219 ft | 386 kts | 230° |
| 2026-04-22 09:42 | 54.63446 | -6.10867 | 29535 ft | 387 kts | 230° |
| 2026-04-22 09:43 | 54.61606 | -6.14216 | 29788 ft | 390 kts | 230° |
| 2026-04-22 09:43 | 54.59736 | -6.17615 | 30101 ft | 391 kts | 230° |
| 2026-04-22 09:43 | 54.57865 | -6.21010 | 30375 ft | 392 kts | 230° |
| 2026-04-22 09:43 | 54.55983 | -6.24419 | 30665 ft | 394 kts | 229° |
| 2026-04-22 09:44 | 54.54111 | -6.27806 | 30917 ft | 395 kts | 230° |
| 2026-04-22 09:44 | 54.52227 | -6.31212 | 31187 ft | 396 kts | 229° |
| 2026-04-22 09:44 | 54.50314 | -6.34666 | 31387 ft | 399 kts | 229° |
| 2026-04-22 09:44 | 54.48409 | -6.38098 | 31637 ft | 400 kts | 229° |
| 2026-04-22 09:45 | 54.46483 | -6.41563 | 31901 ft | 401 kts | 229° |
| 2026-04-22 09:45 | 54.44549 | -6.45039 | 32101 ft | 404 kts | 229° |
| 2026-04-22 09:45 | 54.42624 | -6.48494 | 32364 ft | 404 kts | 229° |
| 2026-04-22 09:45 | 54.40675 | -6.51985 | 32523 ft | 408 kts | 229° |
| 2026-04-22 09:46 | 54.38717 | -6.55488 | 32787 ft | 408 kts | 229° |
| 2026-04-22 09:46 | 54.36766 | -6.58974 | 32945 ft | 411 kts | 229° |
| 2026-04-22 09:46 | 54.34794 | -6.62491 | 33207 ft | 412 kts | 229° |
| 2026-04-22 09:46 | 54.32806 | -6.66033 | 33352 ft | 415 kts | 228° |
| 2026-04-22 09:47 | 54.30814 | -6.69573 | 33617 ft | 415 kts | 228° |
| 2026-04-22 09:47 | 54.28815 | -6.73124 | 33793 ft | 417 kts | 228° |
| 2026-04-22 09:47 | 54.26801 | -6.76696 | 34043 ft | 418 kts | 228° |
| 2026-04-22 09:47 | 54.24786 | -6.80263 | 34159 ft | 421 kts | 228° |
| 2026-04-22 09:48 | 54.22729 | -6.83886 | 34350 ft | 422 kts | 227° |
| 2026-04-22 09:48 | 54.20616 | -6.87274 | 34348 ft | 425 kts | 222° |
| 2026-04-22 09:48 | 54.18215 | -6.90157 | 34343 ft | 426 kts | 211° |
| 2026-04-22 09:48 | 54.15479 | -6.92223 | 34349 ft | 427 kts | 202° |
| 2026-04-22 09:49 | 54.09775 | -6.95088 | 34338 ft | 431 kts | 198° |
| 2026-04-22 09:49 | 54.04012 | -6.97576 | 34335 ft | 430 kts | 197° |
| 2026-04-22 09:50 | 53.98225 | -7.00114 | 34326 ft | 429 kts | 199° |
| 2026-04-22 09:50 | 53.92593 | -7.03261 | 34327 ft | 428 kts | 202° |
| 2026-04-22 09:51 | 53.87030 | -7.06687 | 34319 ft | 428 kts | 202° |
| 2026-04-22 09:51 | 53.81457 | -7.10102 | 34311 ft | 426 kts | 202° |
| 2026-04-22 09:52 | 53.75908 | -7.13448 | 34306 ft | 427 kts | 201° |
| 2026-04-22 09:52 | 53.70329 | -7.16772 | 34297 ft | 425 kts | 201° |
| 2026-04-22 09:53 | 53.64765 | -7.20062 | 34303 ft | 425 kts | 201° |
| 2026-04-22 09:53 | 53.59188 | -7.23346 | 34298 ft | 424 kts | 201° |
| 2026-04-22 09:54 | 53.53651 | -7.26595 | 34293 ft | 424 kts | 201° |
| 2026-04-22 09:54 | 53.48086 | -7.29852 | 34287 ft | 424 kts | 201° |
| 2026-04-22 09:55 | 53.42558 | -7.33076 | 34278 ft | 422 kts | 201° |
| 2026-04-22 09:55 | 53.37037 | -7.36287 | 34272 ft | 422 kts | 201° |
| 2026-04-22 09:56 | 53.31489 | -7.39504 | 34258 ft | 422 kts | 200° |
| 2026-04-22 09:56 | 53.25970 | -7.42693 | 34260 ft | 422 kts | 200° |
| 2026-04-22 09:57 | 53.20452 | -7.45874 | 34269 ft | 422 kts | 200° |
| 2026-04-22 09:57 | 53.14893 | -7.49071 | 34268 ft | 422 kts | 200° |
| 2026-04-22 09:58 | 53.09369 | -7.52239 | 34261 ft | 422 kts | 200° |
| 2026-04-22 09:58 | 53.03842 | -7.55400 | 34252 ft | 421 kts | 200° |
| 2026-04-22 09:59 | 52.98334 | -7.58541 | 34243 ft | 420 kts | 199° |
| 2026-04-22 09:59 | 52.92755 | -7.61390 | 34237 ft | 420 kts | 197° |
| 2026-04-22 10:00 | 52.87144 | -7.64024 | 34238 ft | 421 kts | 197° |
| 2026-04-22 10:00 | 52.81537 | -7.66649 | 34227 ft | 418 kts | 196° |
| 2026-04-22 10:01 | 52.75975 | -7.69278 | 34221 ft | 418 kts | 196° |
| 2026-04-22 10:01 | 52.70393 | -7.71931 | 34220 ft | 417 kts | 196° |
| 2026-04-22 10:02 | 52.64863 | -7.74560 | 34219 ft | 417 kts | 196° |
| 2026-04-22 10:02 | 52.59278 | -7.77210 | 34217 ft | 416 kts | 196° |
| 2026-04-22 10:03 | 52.53760 | -7.79823 | 34217 ft | 414 kts | 196° |
| 2026-04-22 10:03 | 52.48245 | -7.82428 | 34212 ft | 414 kts | 196° |
| 2026-04-22 10:04 | 52.42730 | -7.85027 | 34210 ft | 414 kts | 195° |
| 2026-04-22 10:04 | 52.37227 | -7.87616 | 34197 ft | 413 kts | 195° |
| 2026-04-22 10:05 | 52.31735 | -7.90192 | 34191 ft | 413 kts | 195° |
| 2026-04-22 10:05 | 52.26214 | -7.92775 | 34180 ft | 413 kts | 195° |
| 2026-04-22 10:06 | 52.20702 | -7.95346 | 34169 ft | 412 kts | 195° |
| 2026-04-22 10:06 | 52.15253 | -7.97884 | 34171 ft | 409 kts | 195° |
| 2026-04-22 10:07 | 52.09780 | -8.00424 | 34177 ft | 411 kts | 195° |
| 2026-04-22 10:07 | 52.04304 | -8.02956 | 34184 ft | 409 kts | 195° |
| 2026-04-22 10:08 | 51.98862 | -8.05468 | 34187 ft | 408 kts | 195° |
| 2026-04-22 10:08 | 51.93433 | -8.07967 | 34172 ft | 407 kts | 195° |
| 2026-04-22 10:09 | 51.87996 | -8.10458 | 34169 ft | 406 kts | 195° |
| 2026-04-22 10:09 | 51.82588 | -8.12934 | 34171 ft | 406 kts | 195° |
| 2026-04-22 10:10 | 51.77159 | -8.15414 | 34163 ft | 405 kts | 194° |
| 2026-04-22 10:10 | 51.71744 | -8.17881 | 34171 ft | 406 kts | 195° |
| 2026-04-22 10:11 | 51.66325 | -8.20345 | 34160 ft | 406 kts | 194° |
| 2026-04-22 10:11 | 51.60941 | -8.22788 | 34145 ft | 404 kts | 194° |
| 2026-04-22 10:12 | 51.55504 | -8.25250 | 34141 ft | 405 kts | 195° |
| 2026-04-22 10:12 | 51.50129 | -8.27679 | 34144 ft | 403 kts | 194° |
| 2026-04-22 10:13 | 51.44723 | -8.30107 | 34129 ft | 404 kts | 194° |
| 2026-04-22 10:13 | 51.39329 | -8.32518 | 34117 ft | 403 kts | 194° |
| 2026-04-22 10:14 | 51.33982 | -8.34915 | 34111 ft | 401 kts | 194° |
| 2026-04-22 10:14 | 51.28602 | -8.37314 | 34095 ft | 402 kts | 194° |
| 2026-04-22 10:15 | 51.23244 | -8.39707 | 34086 ft | 399 kts | 194° |
| 2026-04-22 10:15 | 51.17896 | -8.42098 | 34084 ft | 402 kts | 194° |
| 2026-04-22 10:16 | 51.12535 | -8.44473 | 34087 ft | 401 kts | 194° |
| 2026-04-22 10:16 | 51.07172 | -8.46846 | 34089 ft | 401 kts | 194° |
| 2026-04-22 10:17 | 51.01817 | -8.49205 | 34067 ft | 400 kts | 193° |
| 2026-04-22 10:17 | 50.96420 | -8.51036 | 34070 ft | 399 kts | 187° |
| 2026-04-22 10:18 | 50.90939 | -8.52184 | 34055 ft | 398 kts | 186° |
| 2026-04-22 10:18 | 50.85462 | -8.53273 | 34052 ft | 396 kts | 186° |
| 2026-04-22 10:19 | 50.80026 | -8.54399 | 34056 ft | 397 kts | 187° |
| 2026-04-22 10:19 | 50.74588 | -8.55554 | 34054 ft | 395 kts | 187° |
| 2026-04-22 10:20 | 50.69122 | -8.56732 | 34060 ft | 397 kts | 187° |
| 2026-04-22 10:20 | 50.63707 | -8.57902 | 34041 ft | 395 kts | 187° |
| 2026-04-22 10:21 | 50.58277 | -8.59075 | 34042 ft | 394 kts | 187° |
| 2026-04-22 10:21 | 50.52830 | -8.60240 | 34057 ft | 397 kts | 186° |
| 2026-04-22 10:22 | 50.47364 | -8.61405 | 34053 ft | 397 kts | 186° |
| 2026-04-22 10:22 | 50.41923 | -8.62565 | 34044 ft | 398 kts | 187° |
| 2026-04-22 10:23 | 50.36441 | -8.63731 | 34025 ft | 398 kts | 187° |
| 2026-04-22 10:23 | 50.30990 | -8.64894 | 34020 ft | 396 kts | 187° |
| 2026-04-22 10:24 | 50.25549 | -8.66050 | 34028 ft | 397 kts | 186° |
| 2026-04-22 10:24 | 50.20082 | -8.67211 | 34024 ft | 397 kts | 186° |
| 2026-04-22 10:25 | 50.14621 | -8.68366 | 34004 ft | 395 kts | 186° |
| 2026-04-22 10:25 | 50.09197 | -8.69509 | 34007 ft | 396 kts | 186° |
| 2026-04-22 10:26 | 50.03780 | -8.70644 | 34006 ft | 394 kts | 186° |
| 2026-04-22 10:26 | 49.98373 | -8.71774 | 34007 ft | 394 kts | 186° |
| 2026-04-22 10:27 | 49.92941 | -8.72912 | 33992 ft | 392 kts | 186° |
| 2026-04-22 10:27 | 49.87545 | -8.74039 | 33999 ft | 393 kts | 186° |
| 2026-04-22 10:28 | 49.82138 | -8.75164 | 33990 ft | 392 kts | 186° |
| 2026-04-22 10:28 | 49.76732 | -8.76291 | 33994 ft | 392 kts | 186° |
| 2026-04-22 10:29 | 49.71323 | -8.77413 | 33994 ft | 394 kts | 186° |
| 2026-04-22 10:29 | 49.65939 | -8.78532 | 33987 ft | 391 kts | 186° |
| 2026-04-22 10:30 | 49.60560 | -8.79643 | 33985 ft | 393 kts | 186° |
| 2026-04-22 10:30 | 49.55159 | -8.80754 | 33978 ft | 391 kts | 186° |
| 2026-04-22 10:31 | 49.49755 | -8.81869 | 33974 ft | 393 kts | 186° |
| 2026-04-22 10:31 | 49.44364 | -8.82976 | 33972 ft | 392 kts | 186° |
| 2026-04-22 10:32 | 49.38983 | -8.84077 | 33970 ft | 391 kts | 186° |
| 2026-04-22 10:32 | 49.33615 | -8.85170 | 33968 ft | 391 kts | 186° |
| 2026-04-22 10:33 | 49.28231 | -8.86263 | 33964 ft | 391 kts | 187° |
| 2026-04-22 10:33 | 49.22867 | -8.87352 | 33959 ft | 390 kts | 187° |
| 2026-04-22 10:34 | 49.17503 | -8.88440 | 33965 ft | 390 kts | 187° |
| 2026-04-22 10:34 | 49.12115 | -8.89531 | 33960 ft | 390 kts | 187° |
| 2026-04-22 10:35 | 49.06750 | -8.90614 | 33953 ft | 389 kts | 187° |
| 2026-04-22 10:35 | 49.01417 | -8.91688 | 33953 ft | 391 kts | 187° |
| 2026-04-22 10:36 | 48.96064 | -8.92764 | 33944 ft | 388 kts | 187° |
| 2026-04-22 10:36 | 48.90725 | -8.93839 | 33947 ft | 388 kts | 187° |
| 2026-04-22 10:37 | 48.82711 | -8.95442 | 33945 ft | 388 kts | 187° |
| 2026-04-22 10:38 | 48.77348 | -8.96515 | 33948 ft | 387 kts | 187° |
| 2026-04-22 10:38 | 48.72026 | -8.97575 | 33956 ft | 388 kts | 187° |
| 2026-04-22 10:39 | 48.66679 | -8.98635 | 33952 ft | 390 kts | 187° |
| 2026-04-22 10:39 | 48.61308 | -8.99702 | 33935 ft | 387 kts | 187° |
| 2026-04-22 10:40 | 48.55963 | -9.00240 | 33943 ft | 389 kts | 181° |
| 2026-04-22 10:40 | 48.50541 | -9.00169 | 33938 ft | 388 kts | 180° |
| 2026-04-22 10:41 | 48.45149 | -9.00073 | 33938 ft | 388 kts | 181° |
| 2026-04-22 10:41 | 48.39786 | -9.00029 | 33940 ft | 389 kts | 181° |
| 2026-04-22 10:42 | 48.34367 | -9.00013 | 33934 ft | 388 kts | 181° |
| 2026-04-22 10:42 | 48.28989 | -9.00007 | 33933 ft | 388 kts | 181° |
| 2026-04-22 10:43 | 48.23577 | -9.00001 | 33935 ft | 389 kts | 181° |
| 2026-04-22 10:43 | 48.18220 | -9.00000 | 33931 ft | 387 kts | 181° |
| 2026-04-22 10:44 | 48.12819 | -9.00004 | 33932 ft | 388 kts | 181° |
| 2026-04-22 10:44 | 48.07420 | -9.00008 | 33925 ft | 388 kts | 182° |
| 2026-04-22 10:45 | 48.02058 | -9.00006 | 33922 ft | 388 kts | 182° |
| 2026-04-22 10:45 | 47.96639 | -9.00003 | 33924 ft | 388 kts | 182° |
| 2026-04-22 10:46 | 47.91261 | -9.00003 | 33927 ft | 388 kts | 182° |
| 2026-04-22 10:46 | 47.85870 | -9.00003 | 33921 ft | 387 kts | 182° |
| 2026-04-22 10:47 | 47.80481 | -9.00000 | 33924 ft | 389 kts | 182° |
| 2026-04-22 10:47 | 47.75127 | -8.99999 | 33923 ft | 388 kts | 182° |
| 2026-04-22 10:48 | 47.69724 | -8.99999 | 33922 ft | 388 kts | 182° |
| 2026-04-22 10:48 | 47.64321 | -9.00000 | 33925 ft | 387 kts | 182° |
| 2026-04-22 10:49 | 47.58948 | -9.00002 | 33925 ft | 390 kts | 182° |
| 2026-04-22 10:49 | 47.53561 | -9.00002 | 33923 ft | 389 kts | 182° |
| 2026-04-22 10:50 | 47.48156 | -9.00003 | 33926 ft | 387 kts | 182° |
| 2026-04-22 10:50 | 47.42791 | -9.00003 | 33920 ft | 386 kts | 182° |
| 2026-04-22 10:51 | 47.37398 | -9.00004 | 33924 ft | 388 kts | 182° |
| 2026-04-22 10:51 | 47.32046 | -9.00003 | 33926 ft | 386 kts | 183° |
| 2026-04-22 10:52 | 47.26655 | -9.00003 | 33922 ft | 388 kts | 183° |
| 2026-04-22 10:52 | 47.21280 | -9.00003 | 33922 ft | 387 kts | 183° |
| 2026-04-22 10:53 | 47.15911 | -9.00001 | 33925 ft | 386 kts | 183° |
| 2026-04-22 10:53 | 47.10564 | -9.00002 | 33925 ft | 387 kts | 183° |
| 2026-04-22 10:54 | 47.05205 | -9.00001 | 33919 ft | 387 kts | 183° |
| 2026-04-22 10:54 | 46.99818 | -9.00000 | 33924 ft | 387 kts | 183° |
| 2026-04-22 10:55 | 46.94433 | -8.99999 | 33923 ft | 387 kts | 183° |
| 2026-04-22 10:55 | 46.89040 | -9.00000 | 33928 ft | 389 kts | 184° |
| 2026-04-22 10:56 | 46.83677 | -8.99997 | 33935 ft | 387 kts | 183° |
| 2026-04-22 10:56 | 46.78321 | -8.99997 | 33940 ft | 387 kts | 184° |
| 2026-04-22 10:57 | 46.72924 | -8.99998 | 33940 ft | 388 kts | 184° |
| 2026-04-22 10:57 | 46.67538 | -9.00001 | 33946 ft | 388 kts | 184° |
| 2026-04-22 10:58 | 46.62164 | -9.00002 | 33943 ft | 389 kts | 184° |
| 2026-04-22 10:58 | 46.56765 | -8.99999 | 33944 ft | 389 kts | 185° |
| 2026-04-22 10:59 | 46.51374 | -8.99998 | 33939 ft | 388 kts | 185° |
| 2026-04-22 10:59 | 46.45966 | -8.99998 | 33934 ft | 389 kts | 185° |
| 2026-04-22 11:00 | 46.40538 | -9.00000 | 33929 ft | 390 kts | 185° |
| 2026-04-22 11:00 | 46.35125 | -8.99999 | 33923 ft | 390 kts | 185° |
| 2026-04-22 11:01 | 46.29711 | -8.99998 | 33925 ft | 389 kts | 185° |
| 2026-04-22 11:01 | 46.24329 | -9.00002 | 33923 ft | 390 kts | 185° |
| 2026-04-22 11:02 | 46.18925 | -9.00004 | 33921 ft | 389 kts | 185° |
| 2026-04-22 11:02 | 46.13493 | -9.00003 | 33918 ft | 391 kts | 186° |
| 2026-04-22 11:03 | 46.08089 | -9.00001 | 33923 ft | 391 kts | 186° |
| 2026-04-22 11:03 | 46.02646 | -9.00002 | 33928 ft | 393 kts | 186° |
| 2026-04-22 11:04 | 45.97207 | -9.00000 | 33925 ft | 390 kts | 186° |
| 2026-04-22 11:04 | 45.91735 | -9.00001 | 33932 ft | 394 kts | 186° |
| 2026-04-22 11:05 | 45.86276 | -8.99999 | 33929 ft | 392 kts | 186° |
| 2026-04-22 11:05 | 45.80850 | -8.99996 | 33928 ft | 392 kts | 186° |
| 2026-04-22 11:06 | 45.75382 | -8.99999 | 33929 ft | 394 kts | 186° |
| 2026-04-22 11:06 | 45.69933 | -8.99999 | 33929 ft | 392 kts | 186° |
| 2026-04-22 11:07 | 45.64452 | -9.00002 | 33931 ft | 393 kts | 186° |
| 2026-04-22 11:07 | 45.59020 | -9.00001 | 33931 ft | 394 kts | 186° |
| 2026-04-22 11:08 | 45.53555 | -9.00000 | 33932 ft | 393 kts | 186° |
| 2026-04-22 11:08 | 45.48080 | -8.99999 | 33936 ft | 394 kts | 186° |
| 2026-04-22 11:09 | 45.42622 | -8.99998 | 33933 ft | 394 kts | 186° |
| 2026-04-22 11:09 | 45.37128 | -8.99999 | 33935 ft | 395 kts | 186° |
| 2026-04-22 11:10 | 45.31653 | -9.00003 | 33938 ft | 395 kts | 186° |
| 2026-04-22 11:10 | 45.26146 | -9.00003 | 33943 ft | 395 kts | 185° |
| 2026-04-22 11:11 | 45.20678 | -9.00000 | 33940 ft | 394 kts | 186° |
| 2026-04-22 11:11 | 45.15189 | -9.00001 | 33941 ft | 396 kts | 186° |
| 2026-04-22 11:12 | 45.09697 | -8.99999 | 33942 ft | 394 kts | 186° |
| 2026-04-22 11:12 | 45.04240 | -8.99999 | 33943 ft | 396 kts | 186° |
| 2026-04-22 11:13 | 44.98711 | -8.99939 | 33947 ft | 398 kts | 184° |
| 2026-04-22 11:13 | 44.93170 | -8.99298 | 33946 ft | 402 kts | 180° |
| 2026-04-22 11:14 | 44.87631 | -8.98454 | 33944 ft | 402 kts | 180° |
| 2026-04-22 11:14 | 44.82087 | -8.97642 | 33947 ft | 403 kts | 180° |
| 2026-04-22 11:15 | 44.76518 | -8.96869 | 33951 ft | 403 kts | 180° |
| 2026-04-22 11:15 | 44.70928 | -8.96113 | 33947 ft | 402 kts | 180° |
| 2026-04-22 11:16 | 44.65401 | -8.95374 | 33953 ft | 401 kts | 180° |
| 2026-04-22 11:16 | 44.59840 | -8.94634 | 33952 ft | 402 kts | 180° |
| 2026-04-22 11:17 | 44.54302 | -8.93900 | 33947 ft | 402 kts | 180° |
| 2026-04-22 11:17 | 44.48725 | -8.93162 | 33943 ft | 402 kts | 180° |
| 2026-04-22 11:18 | 44.43190 | -8.92429 | 33945 ft | 402 kts | 180° |
| 2026-04-22 11:18 | 44.37588 | -8.91692 | 33946 ft | 404 kts | 180° |
| 2026-04-22 11:19 | 44.32050 | -8.90962 | 33943 ft | 402 kts | 180° |
| 2026-04-22 11:19 | 44.26463 | -8.90227 | 33946 ft | 403 kts | 180° |
| 2026-04-22 11:20 | 44.20899 | -8.89496 | 33942 ft | 403 kts | 180° |
| 2026-04-22 11:20 | 44.15310 | -8.88764 | 33951 ft | 405 kts | 180° |
| 2026-04-22 11:21 | 44.09708 | -8.88033 | 33944 ft | 404 kts | 180° |
| 2026-04-22 11:21 | 44.04111 | -8.87304 | 33949 ft | 404 kts | 180° |
| 2026-04-22 11:22 | 43.98546 | -8.86580 | 33944 ft | 403 kts | 180° |
| 2026-04-22 11:22 | 43.92970 | -8.85856 | 33951 ft | 405 kts | 180° |
| 2026-04-22 11:23 | 43.87360 | -8.85127 | 33951 ft | 404 kts | 180° |
| 2026-04-22 11:23 | 43.81787 | -8.84405 | 33955 ft | 404 kts | 180° |
| 2026-04-22 11:24 | 43.76198 | -8.83686 | 33953 ft | 405 kts | 180° |
| 2026-04-22 11:24 | 43.70596 | -8.82965 | 33956 ft | 405 kts | 179° |
| 2026-04-22 11:25 | 43.64984 | -8.82240 | 33963 ft | 404 kts | 179° |
| 2026-04-22 11:25 | 43.59396 | -8.81521 | 33964 ft | 406 kts | 180° |
| 2026-04-22 11:26 | 43.53810 | -8.80804 | 33963 ft | 404 kts | 179° |
| 2026-04-22 11:26 | 43.48196 | -8.80086 | 33966 ft | 404 kts | 180° |
| 2026-04-22 11:27 | 43.42611 | -8.79373 | 33966 ft | 403 kts | 179° |
| 2026-04-22 11:27 | 43.37038 | -8.78664 | 33968 ft | 404 kts | 179° |
| 2026-04-22 11:28 | 43.31445 | -8.77951 | 33975 ft | 404 kts | 179° |
| 2026-04-22 11:28 | 43.25852 | -8.77241 | 33967 ft | 404 kts | 179° |
| 2026-04-22 11:29 | 43.20250 | -8.76531 | 33971 ft | 405 kts | 179° |
| 2026-04-22 11:29 | 43.14688 | -8.75826 | 33976 ft | 404 kts | 179° |
| 2026-04-22 11:30 | 43.09106 | -8.75122 | 33973 ft | 404 kts | 179° |
| 2026-04-22 11:30 | 43.03470 | -8.74413 | 33972 ft | 405 kts | 179° |
| 2026-04-22 11:31 | 42.97889 | -8.73709 | 33976 ft | 404 kts | 179° |
| 2026-04-22 11:31 | 42.92291 | -8.73006 | 33978 ft | 405 kts | 179° |
| 2026-04-22 11:32 | 42.86690 | -8.72303 | 33982 ft | 405 kts | 179° |
| 2026-04-22 11:32 | 42.81090 | -8.71604 | 33978 ft | 405 kts | 179° |
| 2026-04-22 11:33 | 42.75461 | -8.70899 | 33981 ft | 406 kts | 179° |
| 2026-04-22 11:33 | 42.69871 | -8.70200 | 33980 ft | 407 kts | 179° |
| 2026-04-22 11:34 | 42.64223 | -8.69495 | 33977 ft | 405 kts | 179° |
| 2026-04-22 11:34 | 42.58630 | -8.68802 | 33979 ft | 406 kts | 179° |
| 2026-04-22 11:35 | 42.53016 | -8.68107 | 33979 ft | 406 kts | 179° |
| 2026-04-22 11:35 | 42.47411 | -8.67413 | 33984 ft | 406 kts | 179° |
| 2026-04-22 11:36 | 42.41779 | -8.66718 | 33983 ft | 405 kts | 179° |
| 2026-04-22 11:36 | 42.36159 | -8.66025 | 33987 ft | 407 kts | 179° |
| 2026-04-22 11:37 | 42.30540 | -8.65333 | 33989 ft | 408 kts | 179° |
| 2026-04-22 11:37 | 42.24884 | -8.64638 | 33991 ft | 407 kts | 179° |
| 2026-04-22 11:38 | 42.19232 | -8.63943 | 33994 ft | 408 kts | 179° |
| 2026-04-22 11:38 | 42.10775 | -8.62907 | 33993 ft | 407 kts | 179° |
| 2026-04-22 11:39 | 42.05171 | -8.62224 | 33998 ft | 408 kts | 179° |
| 2026-04-22 11:39 | 41.99516 | -8.61535 | 34000 ft | 408 kts | 179° |
| 2026-04-22 11:40 | 41.93859 | -8.60846 | 33998 ft | 408 kts | 178° |
| 2026-04-22 11:40 | 41.88198 | -8.60184 | 33999 ft | 408 kts | 179° |
| 2026-04-22 11:41 | 41.82574 | -8.60221 | 34000 ft | 404 kts | 188° |
| 2026-04-22 11:41 | 41.77003 | -8.61216 | 34002 ft | 403 kts | 192° |
| 2026-04-22 11:42 | 41.71471 | -8.62413 | 34001 ft | 402 kts | 192° |
| 2026-04-22 11:42 | 41.65972 | -8.63587 | 34002 ft | 402 kts | 192° |
| 2026-04-22 11:43 | 41.60455 | -8.64729 | 34002 ft | 402 kts | 191° |
| 2026-04-22 11:43 | 41.54929 | -8.65851 | 34002 ft | 402 kts | 191° |
| 2026-04-22 11:44 | 41.49365 | -8.66974 | 34004 ft | 404 kts | 191° |
| 2026-04-22 11:44 | 41.43838 | -8.68079 | 34008 ft | 403 kts | 191° |
| 2026-04-22 11:45 | 41.38300 | -8.69184 | 34011 ft | 403 kts | 191° |
| 2026-04-22 11:45 | 41.32724 | -8.70299 | 34015 ft | 404 kts | 191° |
| 2026-04-22 11:46 | 41.27180 | -8.71405 | 34015 ft | 402 kts | 191° |
| 2026-04-22 11:46 | 41.21666 | -8.72502 | 34018 ft | 403 kts | 191° |
| 2026-04-22 11:47 | 41.16092 | -8.73610 | 34016 ft | 403 kts | 191° |
| 2026-04-22 11:47 | 41.10575 | -8.74702 | 34012 ft | 403 kts | 191° |
| 2026-04-22 11:48 | 41.05025 | -8.75800 | 34012 ft | 404 kts | 191° |
| 2026-04-22 11:48 | 40.99466 | -8.76897 | 34013 ft | 405 kts | 191° |
| 2026-04-22 11:49 | 40.93898 | -8.77995 | 34009 ft | 405 kts | 191° |
| 2026-04-22 11:49 | 40.88340 | -8.79089 | 34013 ft | 405 kts | 191° |
| 2026-04-22 11:50 | 40.82745 | -8.80189 | 34007 ft | 405 kts | 192° |
| 2026-04-22 11:50 | 40.77189 | -8.81279 | 34009 ft | 405 kts | 191° |
| 2026-04-22 11:51 | 40.71619 | -8.82370 | 34006 ft | 405 kts | 191° |
| 2026-04-22 11:51 | 40.66059 | -8.83456 | 34008 ft | 405 kts | 191° |
| 2026-04-22 11:52 | 40.60470 | -8.84547 | 34004 ft | 405 kts | 191° |
| 2026-04-22 11:52 | 40.54900 | -8.85632 | 34003 ft | 405 kts | 192° |
| 2026-04-22 11:53 | 40.49330 | -8.86716 | 34006 ft | 406 kts | 192° |
| 2026-04-22 11:53 | 40.43750 | -8.87799 | 34007 ft | 406 kts | 192° |
| 2026-04-22 11:54 | 40.38180 | -8.88879 | 34003 ft | 406 kts | 191° |
| 2026-04-22 11:54 | 40.32582 | -8.89963 | 34008 ft | 406 kts | 192° |
| 2026-04-22 11:55 | 40.26967 | -8.91047 | 34004 ft | 407 kts | 192° |
| 2026-04-22 11:55 | 40.21404 | -8.92120 | 34003 ft | 406 kts | 192° |
| 2026-04-22 11:56 | 40.15803 | -8.93198 | 34008 ft | 405 kts | 192° |
| 2026-04-22 11:56 | 40.10268 | -8.94262 | 34011 ft | 405 kts | 192° |
| 2026-04-22 11:57 | 40.04650 | -8.95342 | 34010 ft | 408 kts | 192° |
| 2026-04-22 11:57 | 39.99067 | -8.96411 | 34006 ft | 408 kts | 192° |
| 2026-04-22 11:58 | 39.93438 | -8.97488 | 34009 ft | 407 kts | 192° |
| 2026-04-22 11:58 | 39.87849 | -8.98554 | 34011 ft | 407 kts | 192° |
| 2026-04-22 11:59 | 39.82238 | -8.99621 | 34010 ft | 408 kts | 192° |
| 2026-04-22 11:59 | 39.76665 | -9.00682 | 34011 ft | 407 kts | 192° |
| 2026-04-22 12:00 | 39.71054 | -9.01749 | 34006 ft | 405 kts | 192° |
| 2026-04-22 12:00 | 39.65493 | -9.02804 | 34004 ft | 405 kts | 192° |
| 2026-04-22 12:01 | 39.59917 | -9.03859 | 34006 ft | 406 kts | 192° |
| 2026-04-22 12:01 | 39.54329 | -9.04917 | 34004 ft | 406 kts | 192° |
| 2026-04-22 12:02 | 39.48732 | -9.05975 | 33999 ft | 408 kts | 192° |
| 2026-04-22 12:02 | 39.43111 | -9.07034 | 34004 ft | 406 kts | 192° |
| 2026-04-22 12:03 | 39.37520 | -9.08088 | 34011 ft | 406 kts | 192° |
| 2026-04-22 12:03 | 39.31981 | -9.09128 | 34017 ft | 405 kts | 193° |
| 2026-04-22 12:04 | 39.26381 | -9.10179 | 34020 ft | 406 kts | 193° |
| 2026-04-22 12:04 | 39.20815 | -9.11221 | 34016 ft | 405 kts | 192° |
| 2026-04-22 12:05 | 39.15234 | -9.12264 | 34022 ft | 406 kts | 193° |
| 2026-04-22 12:05 | 39.09646 | -9.13308 | 34024 ft | 406 kts | 192° |
| 2026-04-22 12:06 | 39.04055 | -9.14352 | 34023 ft | 406 kts | 193° |
| 2026-04-22 12:06 | 38.98500 | -9.15385 | 34021 ft | 406 kts | 193° |
| 2026-04-22 12:07 | 38.92895 | -9.16423 | 34023 ft | 406 kts | 193° |
| 2026-04-22 12:07 | 38.87317 | -9.17457 | 34025 ft | 406 kts | 193° |
| 2026-04-22 12:08 | 38.81721 | -9.18496 | 34022 ft | 405 kts | 193° |
| 2026-04-22 12:08 | 38.76140 | -9.19527 | 34023 ft | 407 kts | 193° |
| 2026-04-22 12:09 | 38.70547 | -9.20558 | 34024 ft | 408 kts | 193° |
| 2026-04-22 12:09 | 38.64923 | -9.21594 | 34025 ft | 407 kts | 193° |
| 2026-04-22 12:10 | 38.59299 | -9.22631 | 34025 ft | 407 kts | 193° |
| 2026-04-22 12:10 | 38.53720 | -9.23656 | 34023 ft | 407 kts | 193° |
| 2026-04-22 12:11 | 38.48087 | -9.24688 | 34026 ft | 407 kts | 193° |
| 2026-04-22 12:11 | 38.42504 | -9.25708 | 34021 ft | 406 kts | 193° |
| 2026-04-22 12:12 | 38.36920 | -9.26729 | 34016 ft | 406 kts | 193° |
| 2026-04-22 12:12 | 38.31303 | -9.27755 | 34015 ft | 407 kts | 193° |
| 2026-04-22 12:13 | 38.25703 | -9.28776 | 34011 ft | 407 kts | 193° |
| 2026-04-22 12:13 | 38.20116 | -9.29794 | 34009 ft | 407 kts | 193° |
| 2026-04-22 12:14 | 38.14513 | -9.30813 | 34009 ft | 409 kts | 193° |
| 2026-04-22 12:14 | 38.08893 | -9.31832 | 34007 ft | 406 kts | 193° |
| 2026-04-22 12:15 | 38.03324 | -9.32839 | 34008 ft | 407 kts | 193° |
| 2026-04-22 12:15 | 37.97683 | -9.33654 | 34008 ft | 411 kts | 188° |
| 2026-04-22 12:16 | 37.91949 | -9.33808 | 34008 ft | 412 kts | 186° |
| 2026-04-22 12:16 | 37.86226 | -9.33814 | 34008 ft | 410 kts | 186° |
| 2026-04-22 12:17 | 37.80547 | -9.33855 | 34008 ft | 409 kts | 186° |
| 2026-04-22 12:17 | 37.74832 | -9.33936 | 34008 ft | 411 kts | 186° |
| 2026-04-22 12:18 | 37.69122 | -9.34034 | 34008 ft | 411 kts | 186° |
| 2026-04-22 12:18 | 37.63391 | -9.34139 | 34008 ft | 411 kts | 186° |
| 2026-04-22 12:19 | 37.57653 | -9.34246 | 34008 ft | 411 kts | 186° |
| 2026-04-22 12:19 | 37.51977 | -9.34352 | 34008 ft | 410 kts | 186° |
| 2026-04-22 12:20 | 37.46255 | -9.34459 | 34008 ft | 410 kts | 186° |
| 2026-04-22 12:20 | 37.40568 | -9.34565 | 34008 ft | 410 kts | 186° |
| 2026-04-22 12:21 | 37.34885 | -9.34672 | 34008 ft | 409 kts | 186° |
| 2026-04-22 12:21 | 37.29172 | -9.34778 | 34008 ft | 410 kts | 186° |
| 2026-04-22 12:22 | 37.23472 | -9.34884 | 34008 ft | 410 kts | 186° |
| 2026-04-22 12:22 | 37.17778 | -9.34990 | 34008 ft | 410 kts | 186° |
| 2026-04-22 12:23 | 37.12098 | -9.35095 | 34008 ft | 410 kts | 186° |
| 2026-04-22 12:23 | 37.06373 | -9.35201 | 34008 ft | 409 kts | 186° |
| 2026-04-22 12:24 | 37.00675 | -9.35307 | 34008 ft | 410 kts | 186° |
| 2026-04-22 12:24 | 36.95023 | -9.35411 | 34008 ft | 409 kts | 186° |
| 2026-04-22 12:25 | 36.89316 | -9.35515 | 34008 ft | 409 kts | 186° |
| 2026-04-22 12:25 | 36.83608 | -9.35621 | 34008 ft | 410 kts | 186° |
| 2026-04-22 12:26 | 36.77919 | -9.35726 | 34008 ft | 411 kts | 186° |
| 2026-04-22 12:26 | 36.72201 | -9.35829 | 34008 ft | 410 kts | 186° |
| 2026-04-22 12:27 | 36.66496 | -9.35934 | 34009 ft | 411 kts | 186° |
| 2026-04-22 12:27 | 36.60793 | -9.36037 | 34008 ft | 410 kts | 186° |
| 2026-04-22 12:28 | 36.55078 | -9.36142 | 34008 ft | 410 kts | 186° |
| 2026-04-22 12:28 | 36.49396 | -9.36246 | 34009 ft | 410 kts | 186° |
| 2026-04-22 12:29 | 36.43711 | -9.36349 | 34009 ft | 409 kts | 186° |
| 2026-04-22 12:29 | 36.37997 | -9.36453 | 34009 ft | 410 kts | 186° |
| 2026-04-22 12:30 | 36.29448 | -9.36609 | 34009 ft | 411 kts | 186° |
| 2026-04-22 12:31 | 36.23747 | -9.36712 | 34008 ft | 410 kts | 186° |
| 2026-04-22 12:31 | 36.18051 | -9.36815 | 34008 ft | 411 kts | 186° |
| 2026-04-22 12:32 | 36.12314 | -9.36918 | 34008 ft | 410 kts | 186° |
| 2026-04-22 12:32 | 36.03798 | -9.37070 | 34008 ft | 409 kts | 186° |
| 2026-04-22 12:33 | 35.98114 | -9.37426 | 34007 ft | 405 kts | 193° |
| 2026-04-22 12:33 | 35.92797 | -9.39348 | 34009 ft | 399 kts | 206° |
| 2026-04-22 12:34 | 35.87750 | -9.42201 | 34007 ft | 396 kts | 210° |
| 2026-04-22 12:34 | 35.82829 | -9.45196 | 34008 ft | 397 kts | 210° |
| 2026-04-22 12:35 | 35.77859 | -9.48192 | 34007 ft | 396 kts | 210° |
| 2026-04-22 12:35 | 35.72915 | -9.51127 | 34008 ft | 396 kts | 209° |
| 2026-04-22 12:36 | 35.67934 | -9.54058 | 34007 ft | 397 kts | 209° |
| 2026-04-22 12:36 | 35.62965 | -9.56968 | 34005 ft | 396 kts | 209° |
| 2026-04-22 12:37 | 35.57978 | -9.59882 | 34010 ft | 397 kts | 209° |
| 2026-04-22 12:37 | 35.52990 | -9.62792 | 34006 ft | 396 kts | 209° |
| 2026-04-22 12:38 | 35.48035 | -9.65678 | 34008 ft | 397 kts | 208° |
| 2026-04-22 12:38 | 35.43065 | -9.68569 | 34006 ft | 395 kts | 208° |
| 2026-04-22 12:39 | 35.35599 | -9.72904 | 34006 ft | 395 kts | 208° |
| 2026-04-22 12:40 | 35.30652 | -9.75773 | 34010 ft | 395 kts | 208° |
| 2026-04-22 12:40 | 35.25684 | -9.78649 | 34008 ft | 395 kts | 208° |
| 2026-04-22 12:41 | 35.20714 | -9.81523 | 34007 ft | 396 kts | 208° |
| 2026-04-22 12:41 | 35.15738 | -9.84396 | 34007 ft | 396 kts | 208° |
| 2026-04-22 12:42 | 35.10739 | -9.87278 | 34006 ft | 396 kts | 208° |
| 2026-04-22 12:42 | 35.05777 | -9.90135 | 34005 ft | 397 kts | 208° |
| 2026-04-22 12:43 | 35.00798 | -9.92996 | 34007 ft | 395 kts | 208° |
| 2026-04-22 12:43 | 34.95821 | -9.95855 | 34008 ft | 395 kts | 208° |
| 2026-04-22 12:44 | 34.90842 | -9.98710 | 34006 ft | 395 kts | 208° |
| 2026-04-22 12:44 | 34.85861 | -10.01562 | 34006 ft | 396 kts | 208° |
| 2026-04-22 12:45 | 34.80878 | -10.04412 | 34004 ft | 394 kts | 208° |
| 2026-04-22 12:45 | 34.75922 | -10.07241 | 34002 ft | 394 kts | 208° |
| 2026-04-22 12:46 | 34.70955 | -10.10076 | 33994 ft | 395 kts | 208° |
| 2026-04-22 12:46 | 34.65964 | -10.12919 | 33990 ft | 395 kts | 208° |
| 2026-04-22 12:47 | 34.60991 | -10.15748 | 33991 ft | 396 kts | 208° |
| 2026-04-22 12:47 | 34.55989 | -10.18589 | 33993 ft | 396 kts | 208° |
| 2026-04-22 12:48 | 34.51025 | -10.21405 | 33991 ft | 396 kts | 208° |
| 2026-04-22 12:48 | 34.46024 | -10.24239 | 33989 ft | 395 kts | 208° |
| 2026-04-22 12:49 | 34.41038 | -10.27061 | 33989 ft | 396 kts | 208° |
| 2026-04-22 12:49 | 34.36088 | -10.29858 | 33997 ft | 396 kts | 208° |
| 2026-04-22 12:50 | 34.31105 | -10.32671 | 33995 ft | 395 kts | 208° |
| 2026-04-22 12:50 | 34.26105 | -10.35489 | 33996 ft | 394 kts | 208° |
| 2026-04-22 12:51 | 34.21150 | -10.38276 | 33993 ft | 395 kts | 208° |
| 2026-04-22 12:51 | 34.16171 | -10.41074 | 33992 ft | 395 kts | 208° |
| 2026-04-22 12:52 | 34.11192 | -10.43870 | 33995 ft | 396 kts | 208° |
| 2026-04-22 12:52 | 34.06179 | -10.46680 | 33990 ft | 396 kts | 208° |
| 2026-04-22 12:53 | 34.01182 | -10.49478 | 33988 ft | 396 kts | 208° |
| 2026-04-22 12:53 | 33.96203 | -10.52262 | 33996 ft | 397 kts | 208° |
| 2026-04-22 12:54 | 33.91188 | -10.55064 | 33996 ft | 395 kts | 208° |
| 2026-04-22 12:54 | 33.86201 | -10.57846 | 33997 ft | 397 kts | 208° |
| 2026-04-22 12:55 | 33.81215 | -10.60623 | 33998 ft | 396 kts | 208° |
| 2026-04-22 12:55 | 33.76196 | -10.63413 | 33999 ft | 398 kts | 208° |
| 2026-04-22 12:56 | 33.71169 | -10.66206 | 33996 ft | 397 kts | 208° |
| 2026-04-22 12:56 | 33.66185 | -10.68971 | 33996 ft | 397 kts | 208° |
| 2026-04-22 12:57 | 33.61172 | -10.71748 | 33997 ft | 397 kts | 208° |
| 2026-04-22 12:57 | 33.56162 | -10.74521 | 33997 ft | 397 kts | 208° |
| 2026-04-22 12:58 | 33.51128 | -10.77302 | 33998 ft | 397 kts | 208° |
| 2026-04-22 12:58 | 33.46116 | -10.80069 | 33995 ft | 396 kts | 208° |
| 2026-04-22 12:59 | 33.41121 | -10.82823 | 33996 ft | 397 kts | 207° |
| 2026-04-22 12:59 | 33.36086 | -10.85595 | 33994 ft | 397 kts | 208° |
| 2026-04-22 13:00 | 33.31088 | -10.88343 | 33993 ft | 397 kts | 208° |
| 2026-04-22 13:00 | 33.26062 | -10.91105 | 33994 ft | 398 kts | 207° |
| 2026-04-22 13:01 | 33.21042 | -10.93858 | 33992 ft | 397 kts | 207° |
| 2026-04-22 13:01 | 33.16006 | -10.96616 | 33995 ft | 398 kts | 208° |
| 2026-04-22 13:02 | 33.10992 | -10.99359 | 34000 ft | 397 kts | 208° |
| 2026-04-22 13:02 | 33.05962 | -11.02108 | 34008 ft | 399 kts | 207° |
| 2026-04-22 13:03 | 33.00932 | -11.04852 | 34006 ft | 398 kts | 207° |
| 2026-04-22 13:03 | 32.95863 | -11.07614 | 33992 ft | 398 kts | 207° |
| 2026-04-22 13:04 | 32.90863 | -11.10335 | 33995 ft | 398 kts | 208° |
| 2026-04-22 13:04 | 32.85811 | -11.13082 | 34004 ft | 399 kts | 208° |
| 2026-04-22 13:05 | 32.80751 | -11.15829 | 34004 ft | 398 kts | 208° |
| 2026-04-22 13:05 | 32.75725 | -11.18555 | 34003 ft | 397 kts | 208° |
| 2026-04-22 13:06 | 32.70688 | -11.21283 | 34002 ft | 397 kts | 208° |
| 2026-04-22 13:06 | 32.65667 | -11.23998 | 34002 ft | 397 kts | 208° |
| 2026-04-22 13:07 | 32.60628 | -11.26722 | 34003 ft | 398 kts | 208° |
| 2026-04-22 13:07 | 32.55600 | -11.29435 | 34001 ft | 398 kts | 208° |
| 2026-04-22 13:08 | 32.50561 | -11.32150 | 34002 ft | 398 kts | 208° |
| 2026-04-22 13:08 | 32.45501 | -11.34872 | 34000 ft | 399 kts | 208° |
| 2026-04-22 13:09 | 32.40454 | -11.37584 | 33999 ft | 398 kts | 208° |
| 2026-04-22 13:09 | 32.35430 | -11.40282 | 34000 ft | 397 kts | 208° |
| 2026-04-22 13:10 | 32.30398 | -11.42981 | 34000 ft | 398 kts | 208° |
| 2026-04-22 13:10 | 32.25377 | -11.45671 | 34000 ft | 398 kts | 208° |
| 2026-04-22 13:11 | 32.20340 | -11.48365 | 34001 ft | 397 kts | 208° |
| 2026-04-22 13:11 | 32.15293 | -11.51062 | 34000 ft | 397 kts | 208° |
| 2026-04-22 13:12 | 32.10260 | -11.53746 | 33999 ft | 397 kts | 208° |
| 2026-04-22 13:12 | 32.05223 | -11.56429 | 33998 ft | 397 kts | 208° |
| 2026-04-22 13:13 | 32.00187 | -11.59110 | 33996 ft | 398 kts | 208° |
| 2026-04-22 13:13 | 31.95146 | -11.61791 | 33992 ft | 397 kts | 208° |
| 2026-04-22 13:14 | 31.90083 | -11.64480 | 33991 ft | 398 kts | 208° |
| 2026-04-22 13:14 | 31.85030 | -11.67159 | 33998 ft | 398 kts | 208° |
| 2026-04-22 13:15 | 31.79999 | -11.69823 | 33992 ft | 396 kts | 208° |
| 2026-04-22 13:15 | 31.74968 | -11.72486 | 33995 ft | 396 kts | 208° |
| 2026-04-22 13:16 | 31.69942 | -11.75144 | 33999 ft | 396 kts | 208° |
| 2026-04-22 13:16 | 31.64911 | -11.77798 | 34005 ft | 397 kts | 208° |
| 2026-04-22 13:17 | 31.59890 | -11.80445 | 33995 ft | 395 kts | 208° |
| 2026-04-22 13:17 | 31.54900 | -11.83075 | 34000 ft | 395 kts | 208° |
| 2026-04-22 13:18 | 31.49841 | -11.85734 | 33996 ft | 397 kts | 208° |
| 2026-04-22 13:18 | 31.44848 | -11.88357 | 34002 ft | 395 kts | 208° |
| 2026-04-22 13:19 | 31.39808 | -11.91003 | 34000 ft | 395 kts | 208° |
| 2026-04-22 13:19 | 31.34812 | -11.93619 | 34002 ft | 396 kts | 208° |
| 2026-04-22 13:20 | 31.29770 | -11.96258 | 34004 ft | 394 kts | 208° |
| 2026-04-22 13:20 | 31.24786 | -11.98865 | 34008 ft | 394 kts | 209° |
| 2026-04-22 13:21 | 31.19773 | -12.01484 | 34001 ft | 394 kts | 209° |
| 2026-04-22 13:21 | 31.14781 | -12.04088 | 33996 ft | 395 kts | 208° |
| 2026-04-22 13:22 | 31.09765 | -12.06702 | 33987 ft | 393 kts | 209° |
| 2026-04-22 13:22 | 31.04784 | -12.09296 | 33990 ft | 394 kts | 209° |
| 2026-04-22 13:23 | 30.99800 | -12.11889 | 33988 ft | 393 kts | 209° |
| 2026-04-22 13:23 | 30.94788 | -12.14493 | 33981 ft | 393 kts | 209° |
| 2026-04-22 13:24 | 30.89781 | -12.17088 | 33989 ft | 391 kts | 209° |
| 2026-04-22 13:24 | 30.84807 | -12.19658 | 33979 ft | 391 kts | 210° |
| 2026-04-22 13:25 | 30.79821 | -12.22239 | 33987 ft | 392 kts | 210° |
| 2026-04-22 13:25 | 30.74855 | -12.24806 | 33978 ft | 393 kts | 210° |
| 2026-04-22 13:26 | 30.69853 | -12.27389 | 33984 ft | 391 kts | 210° |
| 2026-04-22 13:26 | 30.64891 | -12.29949 | 33997 ft | 393 kts | 210° |
| 2026-04-22 13:27 | 30.59909 | -12.32511 | 33981 ft | 389 kts | 210° |
| 2026-04-22 13:27 | 30.57963 | -12.33511 | 33983 ft | 392 kts | 210° |
| 2026-04-22 16:53 | 30.57583 | -12.33706 | 33983 ft | 392 kts | 210° |
| 2026-04-22 16:54 | 30.52609 | -12.36295 | 33984 ft | 389 kts | 212° |
| 2026-04-22 16:54 | 30.48000 | -12.39459 | 33980 ft | 381 kts | 220° |
| 2026-04-22 16:55 | 30.43723 | -12.43089 | 33977 ft | 378 kts | 223° |
| 2026-04-22 16:55 | 30.39566 | -12.46709 | 33984 ft | 372 kts | 223° |
| 2026-04-22 16:56 | 30.35432 | -12.50295 | 33989 ft | 373 kts | 223° |
| 2026-04-22 16:56 | 30.31274 | -12.53874 | 33987 ft | 365 kts | 222° |
| 2026-04-22 16:56 | 30.29242 | -12.55604 | 33816 ft | 355 kts | 223° |
| 2026-04-22 16:57 | 30.27276 | -12.57281 | 33471 ft | 349 kts | 222° |
| 2026-04-22 16:57 | 30.25356 | -12.58925 | 33074 ft | 348 kts | 222° |
| 2026-04-22 16:57 | 30.23385 | -12.60620 | 32656 ft | 355 kts | 221° |
| 2026-04-22 16:57 | 30.21391 | -12.62333 | 32211 ft | 355 kts | 221° |
| 2026-04-22 16:58 | 30.19430 | -12.64009 | 31781 ft | 351 kts | 220° |
| 2026-04-22 16:58 | 30.17476 | -12.65673 | 31361 ft | 348 kts | 219° |
| 2026-04-22 16:58 | 30.15545 | -12.67317 | 30931 ft | 345 kts | 218° |
| 2026-04-22 16:58 | 30.13620 | -12.68957 | 30508 ft | 341 kts | 218° |
| 2026-04-22 16:59 | 30.11718 | -12.70597 | 30098 ft | 339 kts | 219° |
| 2026-04-22 16:59 | 30.09945 | -12.72373 | 29691 ft | 343 kts | 223° |
| 2026-04-22 16:59 | 30.08265 | -12.74365 | 29250 ft | 347 kts | 226° |
| 2026-04-22 16:59 | 30.06672 | -12.76405 | 28829 ft | 345 kts | 227° |
| 2026-04-22 17:00 | 30.05095 | -12.78471 | 28406 ft | 341 kts | 227° |
| 2026-04-22 17:00 | 30.01991 | -12.82530 | 27580 ft | 332 kts | 227° |
| 2026-04-22 17:00 | 30.00473 | -12.84503 | 27175 ft | 328 kts | 227° |
| 2026-04-22 17:01 | 29.98963 | -12.86456 | 26771 ft | 325 kts | 227° |
| 2026-04-22 17:01 | 29.97475 | -12.88375 | 26377 ft | 326 kts | 227° |
| 2026-04-22 17:01 | 29.95949 | -12.90341 | 25976 ft | 330 kts | 227° |
| 2026-04-22 17:01 | 29.94414 | -12.92316 | 25566 ft | 330 kts | 226° |
| 2026-04-22 17:02 | 29.92892 | -12.94271 | 25165 ft | 326 kts | 226° |
| 2026-04-22 17:02 | 29.91364 | -12.96184 | 24762 ft | 322 kts | 224° |
| 2026-04-22 17:02 | 29.89707 | -12.97868 | 24370 ft | 317 kts | 214° |
| 2026-04-22 17:02 | 29.87778 | -12.99047 | 23988 ft | 313 kts | 202° |
| 2026-04-22 17:03 | 29.85739 | -12.99892 | 23602 ft | 311 kts | 199° |
| 2026-04-22 17:03 | 29.83671 | -13.00656 | 23215 ft | 309 kts | 198° |
| 2026-04-22 17:03 | 29.81610 | -13.01411 | 22826 ft | 314 kts | 199° |
| 2026-04-22 17:03 | 29.79534 | -13.02186 | 22437 ft | 315 kts | 198° |
| 2026-04-22 17:04 | 29.77461 | -13.02973 | 22044 ft | 312 kts | 199° |
| 2026-04-22 17:04 | 29.75414 | -13.03757 | 21661 ft | 308 kts | 199° |
| 2026-04-22 17:04 | 29.73379 | -13.04539 | 21276 ft | 305 kts | 199° |
| 2026-04-22 17:04 | 29.71371 | -13.05316 | 20896 ft | 302 kts | 199° |
| 2026-04-22 17:05 | 29.69397 | -13.06078 | 20521 ft | 299 kts | 199° |
| 2026-04-22 17:05 | 29.67446 | -13.06831 | 20150 ft | 296 kts | 199° |
| 2026-04-22 17:05 | 29.65502 | -13.07582 | 19783 ft | 293 kts | 199° |
| 2026-04-22 17:05 | 29.63579 | -13.08326 | 19418 ft | 290 kts | 199° |
| 2026-04-22 17:06 | 29.61648 | -13.09073 | 19054 ft | 292 kts | 199° |
| 2026-04-22 17:06 | 29.59705 | -13.09823 | 18680 ft | 295 kts | 199° |
| 2026-04-22 17:06 | 29.57766 | -13.10572 | 18312 ft | 292 kts | 199° |
| 2026-04-22 17:06 | 29.55859 | -13.11309 | 17950 ft | 289 kts | 199° |
| 2026-04-22 17:07 | 29.53973 | -13.12036 | 17595 ft | 286 kts | 198° |
| 2026-04-22 17:07 | 29.52089 | -13.12763 | 17236 ft | 284 kts | 199° |
| 2026-04-22 17:07 | 29.50228 | -13.13479 | 16985 ft | 280 kts | 199° |
| 2026-04-22 17:07 | 29.48353 | -13.14199 | 16970 ft | 287 kts | 199° |
| 2026-04-22 17:08 | 29.46435 | -13.14937 | 16966 ft | 290 kts | 199° |
| 2026-04-22 17:08 | 29.44515 | -13.15676 | 16965 ft | 291 kts | 199° |
| 2026-04-22 17:08 | 29.42610 | -13.16407 | 16931 ft | 290 kts | 199° |
| 2026-04-22 17:08 | 29.40694 | -13.17142 | 16706 ft | 291 kts | 199° |
| 2026-04-22 17:09 | 29.38778 | -13.17878 | 16463 ft | 288 kts | 199° |
| 2026-04-22 17:09 | 29.36869 | -13.18611 | 16209 ft | 286 kts | 199° |
| 2026-04-22 17:09 | 29.34976 | -13.19301 | 15870 ft | 283 kts | 198° |
| 2026-04-22 17:09 | 29.33091 | -13.19909 | 15516 ft | 281 kts | 196° |
| 2026-04-22 17:10 | 29.31220 | -13.20483 | 15164 ft | 278 kts | 196° |
| 2026-04-22 17:10 | 29.29358 | -13.21057 | 14819 ft | 279 kts | 197° |
| 2026-04-22 17:10 | 29.27464 | -13.21653 | 14463 ft | 285 kts | 197° |
| 2026-04-22 17:10 | 29.25565 | -13.22257 | 14104 ft | 283 kts | 197° |
| 2026-04-22 17:11 | 29.23655 | -13.22865 | 13744 ft | 281 kts | 198° |
| 2026-04-22 17:11 | 29.21803 | -13.23473 | 13394 ft | 278 kts | 198° |
| 2026-04-22 17:11 | 29.19937 | -13.24105 | 13040 ft | 276 kts | 199° |
| 2026-04-22 17:11 | 29.18120 | -13.24726 | 12694 ft | 274 kts | 199° |
| 2026-04-22 17:12 | 29.16307 | -13.25341 | 12352 ft | 271 kts | 199° |
| 2026-04-22 17:12 | 29.14480 | -13.25958 | 12010 ft | 271 kts | 198° |
| 2026-04-22 17:12 | 29.12660 | -13.26573 | 11667 ft | 276 kts | 198° |
| 2026-04-22 17:12 | 29.10827 | -13.27191 | 11314 ft | 277 kts | 198° |
| 2026-04-22 17:13 | 29.08976 | -13.27813 | 10963 ft | 274 kts | 198° |
| 2026-04-22 17:13 | 29.07157 | -13.28425 | 10615 ft | 271 kts | 198° |
| 2026-04-22 17:13 | 29.05353 | -13.29032 | 10271 ft | 269 kts | 198° |
| 2026-04-22 17:13 | 29.03575 | -13.29630 | 9948 ft | 266 kts | 198° |
| 2026-04-22 17:14 | 29.01818 | -13.30220 | 9774 ft | 257 kts | 198° |
| 2026-04-22 17:14 | 29.00100 | -13.30799 | 9414 ft | 256 kts | 199° |
| 2026-04-22 17:14 | 28.98394 | -13.31379 | 9100 ft | 254 kts | 199° |
| 2026-04-22 17:14 | 28.96719 | -13.31982 | 8785 ft | 252 kts | 200° |
| 2026-04-22 17:15 | 28.95607 | -13.32406 | 8562 ft | 251 kts | 201° |
| 2026-04-22 17:15 | 28.93405 | -13.33260 | 8190 ft | 253 kts | 201° |
| 2026-04-22 17:15 | 28.91764 | -13.33931 | 8063 ft | 244 kts | 202° |
| 2026-04-22 17:15 | 28.90159 | -13.34616 | 7792 ft | 247 kts | 202° |
| 2026-04-22 17:16 | 28.88573 | -13.35337 | 7507 ft | 245 kts | 207° |
| 2026-04-22 17:16 | 28.87070 | -13.36260 | 7210 ft | 244 kts | 212° |
| 2026-04-22 17:16 | 28.85622 | -13.37249 | 6909 ft | 244 kts | 212° |
| 2026-04-22 17:16 | 28.84162 | -13.38263 | 6607 ft | 243 kts | 212° |
| 2026-04-22 17:17 | 28.82710 | -13.39272 | 6320 ft | 244 kts | 212° |
| 2026-04-22 17:17 | 28.81257 | -13.40281 | 6026 ft | 242 kts | 212° |
| 2026-04-22 17:17 | 28.79814 | -13.41281 | 5738 ft | 243 kts | 212° |
| 2026-04-22 17:17 | 28.78375 | -13.42277 | 5438 ft | 243 kts | 213° |
| 2026-04-22 17:18 | 28.76922 | -13.43280 | 5146 ft | 242 kts | 212° |
| 2026-04-22 17:18 | 28.75481 | -13.44271 | 4852 ft | 242 kts | 212° |
| 2026-04-22 17:18 | 28.74079 | -13.45341 | 4554 ft | 241 kts | 221° |
| 2026-04-22 17:18 | 28.72861 | -13.46657 | 4255 ft | 243 kts | 227° |
| 2026-04-22 17:19 | 28.70526 | -13.49412 | 3664 ft | 242 kts | 227° |
| 2026-04-22 17:19 | 28.68979 | -13.52707 | 3068 ft | 239 kts | 267° |
| 2026-04-22 17:20 | 28.69830 | -13.56267 | 2476 ft | 235 kts | 297° |
| 2026-04-22 17:20 | 28.71211 | -13.59475 | 2314 ft | 214 kts | 297° |
| 2026-04-22 17:21 | 28.71855 | -13.60992 | 2313 ft | 213 kts | 297° |
| 2026-04-22 17:21 | 28.73164 | -13.64068 | 2313 ft | 215 kts | 297° |
| 2026-04-22 17:22 | 28.74528 | -13.66877 | 2301 ft | 186 kts | 316° |
| 2026-04-22 17:22 | 28.75605 | -13.67595 | 2311 ft | 182 kts | 346° |
| 2026-04-22 17:22 | 28.78136 | -13.67783 | 2319 ft | 181 kts | 357° |
| 2026-04-22 17:23 | 28.79387 | -13.67835 | 2313 ft | 180 kts | 357° |
| 2026-04-22 17:23 | 28.81871 | -13.67541 | 2321 ft | 182 kts | 21° |
| 2026-04-22 17:23 | 28.83055 | -13.66963 | 2293 ft | 182 kts | 22° |
| 2026-04-22 17:24 | 28.84218 | -13.66372 | 2082 ft | 182 kts | 24° |
| 2026-04-22 17:24 | 28.85327 | -13.65767 | 1861 ft | 171 kts | 25° |
| 2026-04-22 17:24 | 28.86365 | -13.65186 | 1617 ft | 161 kts | 25° |
| 2026-04-22 17:24 | 28.87339 | -13.64638 | 1431 ft | 151 kts | 26° |
| 2026-04-22 17:25 | 28.88250 | -13.64119 | 1222 ft | 139 kts | 26° |
| 2026-04-22 17:25 | 28.89118 | -13.63624 | 1031 ft | 139 kts | 27° |
| 2026-04-22 17:25 | 28.89951 | -13.63151 | 854 ft | 139 kts | 27° |
| 2026-04-22 17:25 | 28.90821 | -13.62652 | 669 ft | 139 kts | 28° |
| 2026-04-22 17:26 | 28.91676 | -13.62165 | 485 ft | 138 kts | 28° |
| 2026-04-22 17:26 | 28.92529 | -13.61674 | 308 ft | 136 kts | 28° |
| 2026-04-22 17:26 | 28.93376 | -13.61201 | 129 ft | 135 kts | 28° |
| 2026-04-22 17:26 | 28.94202 | -13.60726 | 31 ft | 124 kts | 29° |
| 2026-04-22 17:27 | 28.94823 | -13.60365 | 29 ft | 69 kts | 27° |
| 2026-04-22 17:27 | 28.95110 | -13.60197 | 29 ft | 31 kts | 27° |
| 2026-04-22 17:27 | 28.95299 | -13.60088 | 29 ft | 26 kts | 27° |
| 2026-04-22 17:27 | 28.95427 | -13.60014 | 29 ft | 12 kts | 26° |
| 2026-04-22 17:28 | 28.95503 | -13.60007 | 29 ft | 11 kts | 325° |
| 2026-04-22 17:28 | 28.95544 | -13.60075 | 29 ft | 10 kts | 296° |
| 2026-04-22 17:28 | 28.95549 | -13.60145 | 29 ft | 8 kts | 235° |
| 2026-04-22 17:28 | 28.95500 | -13.60180 | 29 ft | 8 kts | 207° |
| 2026-04-22 17:29 | 28.95427 | -13.60222 | 29 ft | 15 kts | 206° |
| 2026-04-22 17:29 | 28.95324 | -13.60282 | 29 ft | 16 kts | 206° |
| 2026-04-22 17:29 | 28.95222 | -13.60340 | 29 ft | 15 kts | 207° |
| 2026-04-22 17:29 | 28.95130 | -13.60396 | 29 ft | 14 kts | 207° |
| 2026-04-22 17:30 | 28.95042 | -13.60446 | 29 ft | 13 kts | 207° |
| 2026-04-22 17:30 | 28.94963 | -13.60493 | 28 ft | 12 kts | 207° |
| 2026-04-22 17:30 | 28.94890 | -13.60537 | 28 ft | 11 kts | 219° |
| 2026-04-22 17:30 | 28.94894 | -13.60614 | 28 ft | 10 kts | 291° |
| 2026-04-22 17:31 | 28.94925 | -13.60680 | 29 ft | 8 kts | 303° |
| 2026-04-22 17:31 | 28.94952 | -13.60736 | 29 ft | 4 kts | 295° |
| 2026-04-22 17:31 | 28.94962 | -13.60759 | 29 ft | 3 kts | 297° |
| 2026-04-22 17:31 | 28.94967 | -13.60770 | 29 ft | 0 kts | 297° |